Time;durP1;ratioP1;P1;durP2;ratioP2;P2;SDS_P1;SDS_P2;PMS_P1;PMS_P2;Temp;Humidity;BMP_temperature;BMP_pressure;BME280_temperature;BME280_humidity;BME280_pressure;Samples;Min_cycle;Max_cycle;Signal;HPM_P1;HPM_P2
2021/04/17 00:03:55;;;;;;;;;;;4.40;99.90;;;;;;10610542;27;19924;-86
2021/04/17 00:08:56;;;;;;;;;;;4.40;99.90;;;;;;10627231;27;20370;-86
2021/04/17 00:13:57;;;;;;;;;;;4.30;99.90;;;;;;10637225;27;20359;-84
2021/04/17 00:18:59;;;;;;;;;;;4.10;99.90;;;;;;10596283;28;19924;-86
2021/04/17 00:24:00;;;;;;;;;;;5.80;99.90;;;;;;10586387;27;19930;-86
2021/04/17 00:29:02;;;;;;;;;;;6.00;99.90;;;;;;10550627;28;19924;-86
2021/04/17 00:34:05;;;;;;;;;;;4.10;99.90;;;;;;10585974;27;19924;-85
2021/04/17 00:39:06;;;;;;;;;;;4.50;99.90;;;;;;10566956;28;19928;-85
2021/04/17 00:44:08;;;;;;;;;;;4.10;99.90;;;;;;10550158;27;19934;-86
2021/04/17 00:49:11;;;;;;;;;;;4.10;99.90;;;;;;10626826;27;19929;-86
2021/04/17 00:54:13;;;;;;;;;;;4.90;99.90;;;;;;10608669;27;19924;-86
2021/04/17 00:59:14;;;;;;;;;;;4.20;99.90;;;;;;10626880;27;19923;-85
2021/04/17 01:04:16;;;;;;;;;;;4.10;99.90;;;;;;10594351;22;19925;-87
2021/04/17 01:09:17;;;;;;;;;;;5.40;99.90;;;;;;10450942;28;20371;-87
2021/04/17 01:14:19;;;;;;;;;;;4.70;99.90;;;;;;10451983;28;19925;-87
2021/04/17 01:19:39;;;;;;;;;;;3.90;99.90;;;;;;10451040;28;19929;-88
2021/04/17 01:24:42;;;;;;;;;;;3.80;99.90;;;;;;10452452;28;19925;-87
2021/04/17 01:29:45;;;;;;;;;;;3.60;99.90;;;;;;10451493;28;19924;-87
2021/04/17 01:34:47;;;;;;;;;;;3.70;99.90;;;;;;10450061;28;20291;-87
2021/04/17 01:39:50;;;;;;;;;;;5.30;99.90;;;;;;10416673;28;19926;-87
2021/04/17 01:44:51;;;;;;;;;;;3.70;99.90;;;;;;10432828;28;20232;-87
2021/04/17 01:49:53;;;;;;;;;;;3.50;99.90;;;;;;10450856;28;19931;-87
2021/04/17 01:54:56;;;;;;;;;;;3.60;99.90;;;;;;10449596;28;20020;-87
2021/04/17 01:59:58;;;;;;;;;;;4.60;99.90;;;;;;10450426;28;19928;-87
2021/04/17 02:04:59;;;;;;;;;;;3.40;99.90;;;;;;10453472;28;20402;-87
2021/04/17 02:10:01;;;;;;;;;;;4.20;99.90;;;;;;10449221;28;19924;-87
2021/04/17 02:15:03;;;;;;;;;;;3.40;99.90;;;;;;10449652;28;20031;-87
2021/04/17 02:20:08;;;;;;;;;;;3.20;99.90;;;;;;10449124;28;19925;-87
2021/04/17 02:25:09;;;;;;;;;;;3.10;99.90;;;;;;10448550;28;20012;-87
2021/04/17 02:30:11;;;;;;;;;;;2.90;99.90;;;;;;10449919;28;19925;-87
2021/04/17 02:35:13;;;;;;;;;;;2.80;99.90;;;;;;10456415;28;19925;-87
2021/04/17 02:40:14;;;;;;;;;;;2.80;99.90;;;;;;10456941;28;19947;-87
2021/04/17 02:45:15;;;;;;;;;;;2.70;99.90;;;;;;10456879;28;19925;-87
2021/04/17 02:50:17;;;;;;;;;;;2.70;99.90;;;;;;10455970;28;19935;-87
2021/04/17 02:55:19;;;;;;;;;;;2.60;99.90;;;;;;10440983;28;20268;-87
2021/04/17 03:00:24;;;;;;;;;;;2.40;99.90;;;;;;10414565;28;19926;-87
2021/04/17 03:05:25;;;;;;;;;;;2.40;99.90;;;;;;10423012;28;19924;-87
2021/04/17 03:10:26;;;;;;;;;;;4.20;99.90;;;;;;10456538;28;19924;-87
2021/04/17 03:15:27;;;;;;;;;;;3.80;99.90;;;;;;10455421;28;20371;-87
2021/04/17 03:20:29;;;;;;;;;;;2.20;99.90;;;;;;10455465;28;19970;-87
2021/04/17 03:25:30;;;;;;;;;;;2.30;99.90;;;;;;10454822;28;20003;-87
2021/04/17 03:30:31;;;;;;;;;;;2.30;99.90;;;;;;10454127;28;19924;-87
2021/04/17 03:35:33;;;;;;;;;;;2.40;99.90;;;;;;10455287;28;19964;-87
2021/04/17 03:40:35;;;;;;;;;;;2.20;99.90;;;;;;10439751;28;20015;-87
2021/04/17 03:45:36;;;;;;;;;;;2.50;99.90;;;;;;10433869;28;19925;-86
2021/04/17 03:50:38;;;;;;;;;;;2.30;99.90;;;;;;10413004;28;19929;-87
2021/04/17 03:55:39;;;;;;;;;;;4.40;99.90;;;;;;10395818;28;19947;-87
2021/04/17 04:00:41;;;;;;;;;;;2.20;99.90;;;;;;10413809;28;19931;-87
2021/04/17 04:05:42;;;;;;;;;;;2.10;99.90;;;;;;10412114;28;19925;-87
2021/04/17 04:10:43;;;;;;;;;;;2.20;99.90;;;;;;10412781;28;19925;-87
2021/04/17 04:15:44;;;;;;;;;;;2.10;99.90;;;;;;10499870;27;20253;-87
2021/04/17 04:20:46;;;;;;;;;;;2.10;99.90;;;;;;10415204;28;19932;-87
2021/04/17 04:25:47;;;;;;;;;;;2.10;99.90;;;;;;10394540;28;20295;-87
2021/04/17 04:30:49;;;;;;;;;;;2.00;99.90;;;;;;10393655;28;20619;-87
2021/04/17 04:35:51;;;;;;;;;;;2.20;99.90;;;;;;10447709;27;19974;-87
2021/04/17 04:40:52;;;;;;;;;;;2.10;99.90;;;;;;10452803;28;20317;-87
2021/04/17 04:45:54;;;;;;;;;;;2.10;99.90;;;;;;10416750;27;20264;-87
2021/04/17 04:50:56;;;;;;;;;;;3.80;99.90;;;;;;10445364;28;19929;-87
2021/04/17 04:55:57;;;;;;;;;;;2.30;99.90;;;;;;10452371;28;19935;-87
2021/04/17 05:00:58;;;;;;;;;;;2.30;99.90;;;;;;10452370;28;20371;-87
2021/04/17 05:06:00;;;;;;;;;;;2.90;99.90;;;;;;10434780;28;19996;-87
2021/04/17 05:11:01;;;;;;;;;;;2.30;99.90;;;;;;10415640;28;19932;-87
2021/04/17 05:16:02;;;;;;;;;;;2.30;99.90;;;;;;10409765;28;19925;-87
2021/04/17 05:21:04;;;;;;;;;;;2.40;99.90;;;;;;10393777;28;19933;-87
2021/04/17 05:26:06;;;;;;;;;;;2.50;99.90;;;;;;10420798;28;20294;-87
2021/04/17 05:31:07;;;;;;;;;;;2.50;99.90;;;;;;10487716;27;20409;-87
2021/04/17 05:36:09;;;;;;;;;;;2.50;99.90;;;;;;10450491;28;19929;-87
2021/04/17 05:41:10;;;;;;;;;;;2.90;99.90;;;;;;10451350;28;19925;-87
2021/04/17 05:46:11;;;;;;;;;;;3.40;99.90;;;;;;10434199;28;20013;-88
2021/04/17 05:51:12;;;;;;;;;;;3.20;99.90;;;;;;10426941;28;20028;-88
2021/04/17 05:56:14;;;;;;;;;;;5.60;99.90;;;;;;10409068;28;19925;-88
2021/04/17 06:01:15;;;;;;;;;;;3.80;99.90;;;;;;10411361;28;19925;-87
2021/04/17 06:06:17;;;;;;;;;;;3.90;99.90;;;;;;10393894;28;20291;-87
2021/04/17 06:11:19;;;;;;;;;;;4.10;99.90;;;;;;10417151;28;19937;-87
2021/04/17 06:16:20;;;;;;;;;;;6.20;99.90;;;;;;10415291;28;19932;-87
2021/04/17 06:21:38;;;;;;;;;;;4.80;99.90;;;;;;10414738;28;19931;-87
2021/04/17 06:26:39;;;;;;;;;;;5.90;99.90;;;;;;10441057;28;19926;-86
2021/04/17 06:31:41;;;;;;;;;;;9.80;99.90;;;;;;10443267;28;19925;-87
2021/04/17 06:36:42;;;;;;;;;;;10.60;99.90;;;;;;10457301;28;19929;-88
2021/04/17 06:41:45;;;;;;;;;;;11.70;99.70;;;;;;10439797;28;20019;-87
2021/04/17 06:46:48;;;;;;;;;;;12.80;98.30;;;;;;10457344;28;20363;-87
2021/04/17 06:51:51;;;;;;;;;;;12.70;98.90;;;;;;10455998;28;20275;-87
2021/04/17 06:56:53;;;;;;;;;;;10.70;99.90;;;;;;10457058;28;19925;-87
2021/04/17 07:01:54;;;;;;;;;;;12.00;99.90;;;;;;10443449;28;20020;-87
2021/04/17 07:06:56;;;;;;;;;;;12.90;98.70;;;;;;10403108;22;20029;-87
2021/04/17 07:11:58;;;;;;;;;;;12.30;97.80;;;;;;10414162;28;19933;-87
2021/04/17 07:17:00;;;;;;;;;;;10.70;99.90;;;;;;10414091;28;20464;-87
2021/04/17 07:22:13;;;;;;;;;;;10.30;99.90;;;;;;10413166;28;20291;-87
2021/04/17 07:27:40;;;;;;;;;;;10.20;99.90;;;;;;10415690;28;20257;-87
2021/04/17 07:32:42;;;;;;;;;;;10.60;99.90;;;;;;10412567;28;19925;-86
2021/04/17 07:37:44;;;;;;;;;;;11.60;98.50;;;;;;10421258;28;20279;-87
2021/04/17 07:42:53;;;;;;;;;;;11.50;99.50;;;;;;10587723;27;19924;-87
2021/04/17 07:47:58;;;;;;;;;;;12.00;98.50;;;;;;10585690;28;20415;-87
2021/04/17 07:53:01;;;;;;;;;;;11.70;98.10;;;;;;10586153;28;19924;-87
2021/04/17 07:58:02;;;;;;;;;;;12.20;95.70;;;;;;10569022;28;19924;-87
2021/04/17 08:03:06;;;;;;;;;;;12.20;93.20;;;;;;10568909;28;19923;-86
2021/04/17 08:08:07;;;;;;;;;;;12.70;93.90;;;;;;10619450;27;19923;-87
2021/04/17 08:13:09;;;;;;;;;;;13.20;92.30;;;;;;10628993;27;19927;-87
2021/04/17 08:18:10;;;;;;;;;;;13.70;87.50;;;;;;10592682;27;19930;-87
2021/04/17 08:23:12;;;;;;;;;;;14.10;87.60;;;;;;10610160;27;20006;-86
2021/04/17 08:28:17;;;;;;;;;;;13.60;83.60;;;;;;10608955;27;19930;-86
2021/04/17 08:33:21;;;;;;;;;;;13.30;86.90;;;;;;10609827;27;20005;-87
2021/04/17 08:38:33;;;;;;;;;;;14.10;76.10;;;;;;10627352;27;19999;-86
2021/04/17 08:43:36;;;;;;;;;;;14.00;71.30;;;;;;10604437;27;20300;-86
2021/04/17 08:48:44;;;;;;;;;;;15.20;77.30;;;;;;10565893;28;19928;-86
2021/04/17 08:53:46;;;;;;;;;;;15.10;68.70;;;;;;10566045;28;19924;-87
2021/04/17 08:59:09;;;;;;;;;;;14.90;72.70;;;;;;10578088;27;19924;-85
2021/04/17 09:04:12;;;;;;;;;;;15.30;67.00;;;;;;10584687;27;19933;-86
2021/04/17 09:09:16;;;;;;;;;;;15.60;65.00;;;;;;10411276;28;19932;-86
2021/04/17 09:14:36;;;;;;;;;;;16.00;62.00;;;;;;10410566;28;20020;-86
2021/04/17 09:19:38;;;;;;;;;;;16.60;59.90;;;;;;10410435;28;20354;-87
2021/04/17 09:24:41;;;;;;;;;;;16.10;56.80;;;;;;10411025;28;19933;-87
2021/04/17 09:29:43;;;;;;;;;;;15.90;56.30;;;;;;10393311;28;19925;-87
2021/04/17 09:34:45;;;;;;;;;;;16.20;56.80;;;;;;10392836;28;19925;-87
2021/04/17 09:39:47;;;;;;;;;;;16.80;56.30;;;;;;10392455;28;19971;-88
2021/04/17 09:44:49;;;;;;;;;;;17.00;53.80;;;;;;10403179;28;19925;-87
2021/04/17 09:49:53;;;;;;;;;;;16.20;54.00;;;;;;10386017;28;19926;-87
2021/04/17 09:54:57;;;;;;;;;;;16.40;53.00;;;;;;10380176;28;20412;-87
2021/04/17 10:00:00;;;;;;;;;;;16.40;53.90;;;;;;10390968;28;20395;-86
2021/04/17 10:05:02;;;;;;;;;;;16.30;52.70;;;;;;10402107;28;20281;-87
2021/04/17 10:10:05;;;;;;;;;;;16.20;57.00;;;;;;10368411;28;19925;-86
2021/04/17 10:15:23;;;;;;;;;;;16.50;48.90;;;;;;10368244;28;19925;-86
2021/04/17 10:20:25;;;;;;;;;;;16.60;52.80;;;;;;10367751;28;19926;-86
2021/04/17 10:25:34;;;;;;;;;;;17.70;50.70;;;;;;10368600;28;19968;-86
2021/04/17 10:30:36;;;;;;;;;;;17.20;49.30;;;;;;10368024;28;19929;-86
2021/04/17 10:35:37;;;;;;;;;;;15.40;49.60;;;;;;10415251;28;19926;-86
2021/04/17 10:40:39;;;;;;;;;;;15.90;53.40;;;;;;10403369;28;19929;-86
2021/04/17 10:45:40;;;;;;;;;;;16.00;52.70;;;;;;10372542;28;20756;-85
2021/04/17 10:50:51;;;;;;;;;;;15.90;49.60;;;;;;10389467;28;19983;-86
2021/04/17 10:55:54;;;;;;;;;;;17.30;50.40;;;;;;10374083;28;20298;-86
2021/04/17 11:01:05;;;;;;;;;;;16.00;54.90;;;;;;10441587;28;20356;-86
2021/04/17 11:06:14;;;;;;;;;;;16.40;53.70;;;;;;10410567;28;20336;-86
2021/04/17 11:11:17;;;;;;;;;;;15.20;58.50;;;;;;10496537;28;20286;-86
2021/04/17 11:16:32;;;;;;;;;;;15.50;52.90;;;;;;10422458;28;20012;-86
2021/04/17 11:21:35;;;;;;;;;;;15.60;55.60;;;;;;10439834;28;20395;-86
2021/04/17 11:26:39;;;;;;;;;;;15.90;53.00;;;;;;10435355;28;19957;-86
2021/04/17 11:31:46;;;;;;;;;;;16.30;56.30;;;;;;10439187;28;19933;-85
2021/04/17 11:36:48;;;;;;;;;;;16.40;53.10;;;;;;10396171;28;20260;-85
2021/04/17 11:41:49;;;;;;;;;;;15.90;56.30;;;;;;10416965;28;20391;-85
2021/04/17 11:46:50;;;;;;;;;;;15.20;57.60;;;;;;10392333;28;19929;-84
2021/04/17 11:51:52;;;;;;;;;;;16.20;60.10;;;;;;10406797;28;19933;-85
2021/04/17 11:56:54;;;;;;;;;;;15.70;55.50;;;;;;10371874;28;20020;-85
2021/04/17 12:01:55;;;;;;;;;;;16.60;54.60;;;;;;10371634;28;20283;-85
2021/04/17 12:06:57;;;;;;;;;;;15.10;52.70;;;;;;10538370;27;20335;-86
2021/04/17 12:11:58;;;;;;;;;;;16.00;56.30;;;;;;10609397;27;20305;-86
2021/04/17 12:16:59;;;;;;;;;;;17.00;55.70;;;;;;10576258;27;19927;-85
2021/04/17 12:22:01;;;;;;;;;;;15.70;57.00;;;;;;10584196;28;19977;-85
2021/04/17 12:27:02;;;;;;;;;;;16.30;57.00;;;;;;10588359;27;19923;-86
2021/04/17 12:32:04;;;;;;;;;;;16.60;57.40;;;;;;10600220;27;20010;-85
2021/04/17 12:37:05;;;;;;;;;;;16.40;52.70;;;;;;10609235;27;19927;-86
2021/04/17 12:42:07;;;;;;;;;;;16.40;51.40;;;;;;10626472;27;20297;-86
2021/04/17 12:47:08;;;;;;;;;;;17.20;52.80;;;;;;10608999;27;19927;-85
2021/04/17 12:52:10;;;;;;;;;;;15.20;53.30;;;;;;10626345;27;19963;-85
2021/04/17 12:57:11;;;;;;;;;;;15.40;56.70;;;;;;10626080;27;20327;-86
2021/04/17 13:02:13;;;;;;;;;;;16.30;54.70;;;;;;10590871;27;19930;-85
2021/04/17 13:07:14;;;;;;;;;;;15.50;54.70;;;;;;10472085;27;20261;-86
2021/04/17 13:12:16;;;;;;;;;;;16.00;53.80;;;;;;10393836;28;19931;-86
2021/04/17 13:17:17;;;;;;;;;;;16.40;55.70;;;;;;10410121;28;20008;-86
2021/04/17 13:22:19;;;;;;;;;;;15.60;54.50;;;;;;10443038;23;19931;-88
2021/04/17 13:27:20;;;;;;;;;;;15.80;54.10;;;;;;10434470;28;19939;-88
2021/04/17 13:32:22;;;;;;;;;;;14.90;58.00;;;;;;10434221;28;19932;-88
2021/04/17 13:37:26;;;;;;;;;;;15.40;58.70;;;;;;10501773;27;20705;-88
2021/04/17 13:42:27;;;;;;;;;;;14.90;56.60;;;;;;10505648;27;19930;-88
2021/04/17 13:47:28;;;;;;;;;;;15.90;55.10;;;;;;10606743;27;19923;-88
2021/04/17 13:52:30;;;;;;;;;;;15.80;58.20;;;;;;10622891;27;19927;-88
2021/04/17 13:57:31;;;;;;;;;;;15.70;56.90;;;;;;10544465;28;19944;-88
2021/04/17 14:02:32;;;;;;;;;;;15.80;55.90;;;;;;10411257;28;19931;-88
2021/04/17 14:07:34;;;;;;;;;;;15.30;60.10;;;;;;10471307;28;20287;-88
2021/04/17 14:12:35;;;;;;;;;;;15.80;54.70;;;;;;10450876;28;19925;-88
2021/04/17 14:17:38;;;;;;;;;;;16.10;58.20;;;;;;10432209;28;20027;-88
2021/04/17 14:22:40;;;;;;;;;;;15.10;56.60;;;;;;10430794;28;19935;-88
2021/04/17 14:27:42;;;;;;;;;;;14.60;56.70;;;;;;10406319;28;19925;-88
2021/04/17 14:32:43;;;;;;;;;;;14.60;58.60;;;;;;10398918;28;20012;-88
2021/04/17 14:37:44;;;;;;;;;;;14.60;58.10;;;;;;10378902;27;20421;-88
2021/04/17 14:42:48;;;;;;;;;;;14.80;61.30;;;;;;10505847;27;19925;-88
2021/04/17 14:47:49;;;;;;;;;;;14.50;61.30;;;;;;10456968;28;20015;-88
2021/04/17 14:52:50;;;;;;;;;;;14.40;61.80;;;;;;10457131;28;19936;-89
2021/04/17 14:57:52;;;;;;;;;;;14.10;63.10;;;;;;10422011;28;19931;-88
2021/04/17 15:02:53;;;;;;;;;;;14.20;60.90;;;;;;10454343;28;19932;-88
2021/04/17 15:07:55;;;;;;;;;;;14.20;61.50;;;;;;10419444;27;19931;-88
2021/04/17 15:12:56;;;;;;;;;;;13.60;61.30;;;;;;10373761;28;19925;-88
2021/04/17 15:17:58;;;;;;;;;;;14.20;61.50;;;;;;10414271;28;19925;-88
2021/04/17 15:23:01;;;;;;;;;;;14.40;61.90;;;;;;10414168;28;19929;-88
2021/04/17 15:28:02;;;;;;;;;;;14.50;62.10;;;;;;10413025;28;20290;-89
2021/04/17 15:33:03;;;;;;;;;;;14.60;64.90;;;;;;10373728;28;20017;-89
2021/04/17 15:38:05;;;;;;;;;;;14.40;61.80;;;;;;10356386;28;19926;-89
2021/04/17 15:43:09;;;;;;;;;;;14.40;62.00;;;;;;10384385;28;19939;-88
2021/04/17 15:48:11;;;;;;;;;;;14.60;60.10;;;;;;10340356;28;19933;-89
2021/04/17 15:53:12;;;;;;;;;;;14.80;59.70;;;;;;10355476;28;19926;-88
2021/04/17 16:19:29;;;;;;;;;;;14.20;59.90;;;;;;10419526;28;19932;-89
2021/04/17 16:24:30;;;;;;;;;;;14.10;60.90;;;;;;10421872;28;19935;-88
2021/04/17 16:29:35;;;;;;;;;;;14.00;62.30;;;;;;10412204;28;19925;-89
2021/04/17 16:34:37;;;;;;;;;;;13.90;61.00;;;;;;10412640;28;19925;-89
2021/04/17 16:39:38;;;;;;;;;;;13.60;61.10;;;;;;10427040;28;19953;-89
2021/04/17 16:44:40;;;;;;;;;;;13.50;63.40;;;;;;10463265;28;19925;-89
2021/04/17 16:49:41;;;;;;;;;;;13.20;64.30;;;;;;10481323;28;19931;-89
2021/04/17 16:54:43;;;;;;;;;;;13.20;64.50;;;;;;10435270;28;19967;-89
2021/04/17 16:59:44;;;;;;;;;;;13.20;64.90;;;;;;10421212;28;19929;-89
2021/04/17 17:04:45;;;;;;;;;;;13.10;64.20;;;;;;10419173;28;19925;-88
2021/04/17 17:09:47;;;;;;;;;;;12.80;66.30;;;;;;10435301;28;19983;-89
2021/04/17 17:14:48;;;;;;;;;;;12.70;66.80;;;;;;10400398;28;19926;-89
2021/04/17 17:19:50;;;;;;;;;;;12.70;67.20;;;;;;10417238;28;19933;-89
2021/04/17 17:24:51;;;;;;;;;;;12.60;67.60;;;;;;10424354;28;19926;-88
2021/04/17 17:29:53;;;;;;;;;;;12.50;68.30;;;;;;10352772;28;19926;-89
2021/04/17 17:34:54;;;;;;;;;;;12.30;68.90;;;;;;10358490;28;20020;-89
2021/04/17 17:39:56;;;;;;;;;;;12.30;69.00;;;;;;10381193;28;19925;-89
2021/04/17 17:44:57;;;;;;;;;;;12.30;73.70;;;;;;10392966;28;19929;-91
2021/04/17 17:50:00;;;;;;;;;;;11.80;82.60;;;;;;10376851;28;19925;-92
2021/04/17 17:55:02;;;;;;;;;;;11.60;87.50;;;;;;10520074;28;19932;-90
2021/04/17 18:00:05;;;;;;;;;;;11.30;90.70;;;;;;10561313;28;19927;-90
2021/04/17 18:05:23;;;;;;;;;;;11.20;91.50;;;;;;10576447;28;19930;-90
2021/04/17 18:10:25;;;;;;;;;;;10.80;92.10;;;;;;10591772;28;19930;-90
2021/04/17 18:15:26;;;;;;;;;;;10.60;93.20;;;;;;10573286;28;20385;-90
2021/04/17 18:20:28;;;;;;;;;;;10.60;93.80;;;;;;10586260;27;19927;-88
2021/04/17 18:25:29;;;;;;;;;;;10.50;94.20;;;;;;10597834;27;19930;-88
2021/04/17 18:30:30;;;;;;;;;;;10.30;94.50;;;;;;10458603;28;20409;-89
2021/04/17 18:35:32;;;;;;;;;;;10.10;95.40;;;;;;10422837;28;20627;-90
2021/04/17 18:40:34;;;;;;;;;;;10.00;95.90;;;;;;10423568;28;19925;-89
2021/04/17 18:45:35;;;;;;;;;;;10.00;95.90;;;;;;10396959;28;21279;-89
2021/04/17 18:50:37;;;;;;;;;;;9.90;96.50;;;;;;10415998;28;19925;-89
2021/04/17 18:55:38;;;;;;;;;;;9.60;96.50;;;;;;10438815;27;19974;-89
2021/04/17 19:00:43;;;;;;;;;;;9.50;97.50;;;;;;10656225;27;19924;-90
2021/04/17 19:05:44;;;;;;;;;;;9.30;97.60;;;;;;10674741;27;19968;-90
2021/04/17 19:10:47;;;;;;;;;;;9.20;98.40;;;;;;10434826;27;20201;-89
2021/04/17 19:15:48;;;;;;;;;;;9.10;98.10;;;;;;10409894;28;19925;-89
2021/04/17 19:20:50;;;;;;;;;;;8.90;98.60;;;;;;10434121;28;19930;-90
2021/04/17 19:25:51;;;;;;;;;;;8.90;98.90;;;;;;10422519;28;20270;-90
2021/04/17 19:30:53;;;;;;;;;;;8.80;99.10;;;;;;10437616;28;20004;-90
2021/04/17 19:35:55;;;;;;;;;;;9.30;99.80;;;;;;10536650;23;20439;-88
2021/04/17 19:40:56;;;;;;;;;;;8.50;99.90;;;;;;10668471;27;20309;-88
2021/04/17 19:45:59;;;;;;;;;;;8.30;99.90;;;;;;10621114;27;19927;-87
2021/04/17 19:51:00;;;;;;;;;;;8.20;99.90;;;;;;10627490;27;19924;-87
2021/04/17 19:56:02;;;;;;;;;;;7.90;99.90;;;;;;10644153;27;19938;-88
2021/04/17 20:01:03;;;;;;;;;;;7.90;99.90;;;;;;10648559;27;19923;-87
2021/04/17 20:06:05;;;;;;;;;;;7.80;99.90;;;;;;10635756;27;19923;-88
2021/04/17 20:11:06;;;;;;;;;;;7.70;99.90;;;;;;10652844;27;20057;-88
2021/04/17 20:16:08;;;;;;;;;;;7.50;99.90;;;;;;10651452;27;19941;-86
2021/04/17 20:21:09;;;;;;;;;;;7.60;99.90;;;;;;10651167;27;20006;-88
2021/04/17 20:26:11;;;;;;;;;;;7.40;99.90;;;;;;10662536;27;19934;-88
2021/04/17 20:31:12;;;;;;;;;;;7.30;99.90;;;;;;10656760;27;19927;-88
2021/04/17 20:36:14;;;;;;;;;;;7.30;99.90;;;;;;10633875;27;19927;-88
2021/04/17 20:41:16;;;;;;;;;;;7.50;99.90;;;;;;10651935;27;19930;-88
2021/04/17 20:46:17;;;;;;;;;;;7.20;99.90;;;;;;10686450;27;19923;-88
2021/04/17 20:51:19;;;;;;;;;;;6.90;99.90;;;;;;10651561;27;19924;-88
2021/04/17 20:56:21;;;;;;;;;;;6.60;99.90;;;;;;10663996;27;19923;-88
2021/04/17 21:01:22;;;;;;;;;;;6.70;99.90;;;;;;10666984;27;19927;-88
2021/04/17 21:06:23;;;;;;;;;;;6.60;99.90;;;;;;10684840;27;19923;-88
2021/04/17 21:11:24;;;;;;;;;;;6.60;99.90;;;;;;10651253;27;19923;-88
2021/04/17 21:16:26;;;;;;;;;;;6.60;99.90;;;;;;10634134;27;19929;-88
2021/04/17 21:21:28;;;;;;;;;;;7.20;99.90;;;;;;10651086;27;19972;-87
2021/04/17 21:26:29;;;;;;;;;;;6.40;99.90;;;;;;10650540;27;19966;-88
2021/04/17 21:31:31;;;;;;;;;;;6.80;99.90;;;;;;10608048;27;19924;-88
2021/04/17 21:36:32;;;;;;;;;;;6.00;99.90;;;;;;10589846;27;19923;-88
2021/04/17 21:41:34;;;;;;;;;;;6.10;99.90;;;;;;10626356;27;19924;-88
2021/04/17 21:46:35;;;;;;;;;;;5.90;99.90;;;;;;10605420;27;20392;-88
2021/04/17 21:51:37;;;;;;;;;;;6.10;99.90;;;;;;10611027;27;19924;-88
2021/04/17 21:56:39;;;;;;;;;;;5.70;99.90;;;;;;10644270;27;20285;-88
2021/04/17 22:01:40;;;;;;;;;;;5.70;99.90;;;;;;10651163;27;20022;-88
2021/04/17 22:06:42;;;;;;;;;;;7.50;99.90;;;;;;10632170;27;19927;-88
2021/04/17 22:11:44;;;;;;;;;;;5.50;99.90;;;;;;10630411;27;19924;-88
2021/04/17 22:16:45;;;;;;;;;;;5.40;99.90;;;;;;10658718;27;19976;-88
2021/04/17 22:21:47;;;;;;;;;;;5.30;99.90;;;;;;10624309;27;19975;-88
2021/04/17 22:26:49;;;;;;;;;;;5.10;99.90;;;;;;10667424;27;19930;-88
2021/04/17 22:31:50;;;;;;;;;;;5.10;99.90;;;;;;10649450;27;19931;-88
2021/04/17 22:36:52;;;;;;;;;;;6.10;99.90;;;;;;10603946;28;20331;-88
2021/04/17 22:41:53;;;;;;;;;;;4.90;99.90;;;;;;10605087;28;19923;-88
2021/04/17 22:46:55;;;;;;;;;;;4.90;99.90;;;;;;10588518;27;19931;-88
2021/04/17 22:51:56;;;;;;;;;;;4.80;99.90;;;;;;10613356;27;20304;-88
2021/04/17 22:56:58;;;;;;;;;;;4.80;99.90;;;;;;10614160;27;19923;-88
2021/04/17 23:01:59;;;;;;;;;;;6.50;99.90;;;;;;10614325;27;19923;-88
2021/04/17 23:07:00;;;;;;;;;;;5.00;99.90;;;;;;10632253;27;19930;-88
2021/04/17 23:12:02;;;;;;;;;;;4.70;99.90;;;;;;10566149;28;19927;-89
2021/04/17 23:17:03;;;;;;;;;;;4.70;99.90;;;;;;10592097;27;20025;-89
2021/04/17 23:22:05;;;;;;;;;;;4.40;99.90;;;;;;10575286;27;19974;-88
2021/04/17 23:27:06;;;;;;;;;;;4.50;99.90;;;;;;10569693;28;20366;-88
2021/04/17 23:32:09;;;;;;;;;;;4.40;99.90;;;;;;10570508;28;20030;-88
2021/04/17 23:37:11;;;;;;;;;;;4.60;99.90;;;;;;10599284;27;19928;-88
2021/04/17 23:42:12;;;;;;;;;;;4.50;99.90;;;;;;10630112;27;20398;-88
2021/04/17 23:47:13;;;;;;;;;;;4.40;99.90;;;;;;10612405;27;20018;-88
2021/04/17 23:52:15;;;;;;;;;;;4.60;99.90;;;;;;10595376;27;19923;-88
2021/04/17 23:57:17;;;;;;;;;;;4.50;99.90;;;;;;10612013;27;20359;-88
